sensor_id;sensor_type;location;lat;lon;timestamp;P1;durP1;ratioP1;P2;durP2;ratioP2
21356;SDS011;10836;53.068;18.234;2023-10-19T00:02:06;41.70;;;15.60;;
21356;SDS011;10836;53.068;18.234;2023-10-19T00:04:42;44.93;;;17.00;;
21356;SDS011;10836;53.068;18.234;2023-10-19T00:07:09;39.47;;;15.87;;
21356;SDS011;10836;53.068;18.234;2023-10-19T00:09:42;48.17;;;18.70;;
21356;SDS011;10836;53.068;18.234;2023-10-19T00:12:13;39.57;;;16.17;;
21356;SDS011;10836;53.068;18.234;2023-10-19T00:14:42;43.70;;;17.83;;
21356;SDS011;10836;53.068;18.234;2023-10-19T00:17:09;49.87;;;18.47;;
21356;SDS011;10836;53.068;18.234;2023-10-19T00:19:38;41.73;;;16.23;;
21356;SDS011;10836;53.068;18.234;2023-10-19T00:22:25;39.87;;;15.83;;
21356;SDS011;10836;53.068;18.234;2023-10-19T00:24:52;30.37;;;13.43;;
21356;SDS011;10836;53.068;18.234;2023-10-19T00:27:19;22.97;;;10.17;;
21356;SDS011;10836;53.068;18.234;2023-10-19T00:29:49;26.00;;;11.87;;
21356;SDS011;10836;53.068;18.234;2023-10-19T00:32:16;33.93;;;14.77;;
21356;SDS011;10836;53.068;18.234;2023-10-19T00:34:44;37.63;;;14.97;;
21356;SDS011;10836;53.068;18.234;2023-10-19T00:37:19;39.33;;;14.13;;
21356;SDS011;10836;53.068;18.234;2023-10-19T00:39:53;32.53;;;13.10;;
21356;SDS011;10836;53.068;18.234;2023-10-19T00:42:22;27.70;;;11.50;;
21356;SDS011;10836;53.068;18.234;2023-10-19T00:44:57;25.90;;;10.30;;
21356;SDS011;10836;53.068;18.234;2023-10-19T00:47:32;19.20;;;8.27;;
21356;SDS011;10836;53.068;18.234;2023-10-19T00:50:07;14.20;;;7.10;;
21356;SDS011;10836;53.068;18.234;2023-10-19T00:52:42;12.97;;;6.37;;
21356;SDS011;10836;53.068;18.234;2023-10-19T00:55:18;17.73;;;6.97;;
21356;SDS011;10836;53.068;18.234;2023-10-19T00:57:52;20.43;;;8.13;;
21356;SDS011;10836;53.068;18.234;2023-10-19T01:00:21;18.53;;;8.13;;
21356;SDS011;10836;53.068;18.234;2023-10-19T01:02:58;15.27;;;6.83;;
21356;SDS011;10836;53.068;18.234;2023-10-19T01:05:32;17.13;;;7.10;;
21356;SDS011;10836;53.068;18.234;2023-10-19T01:08:04;16.17;;;6.73;;
21356;SDS011;10836;53.068;18.234;2023-10-19T01:10:46;13.77;;;6.43;;
21356;SDS011;10836;53.068;18.234;2023-10-19T01:13:19;15.57;;;6.73;;
21356;SDS011;10836;53.068;18.234;2023-10-19T01:15:54;11.60;;;5.87;;
21356;SDS011;10836;53.068;18.234;2023-10-19T01:18:21;13.00;;;5.67;;
21356;SDS011;10836;53.068;18.234;2023-10-19T01:20:48;15.33;;;6.77;;
21356;SDS011;10836;53.068;18.234;2023-10-19T01:23:19;12.23;;;6.03;;
21356;SDS011;10836;53.068;18.234;2023-10-19T01:25:48;13.30;;;5.70;;
21356;SDS011;10836;53.068;18.234;2023-10-19T01:31:10;17.37;;;7.10;;
21356;SDS011;10836;53.068;18.234;2023-10-19T01:33:49;17.77;;;7.60;;
21356;SDS011;10836;53.068;18.234;2023-10-19T01:36:17;12.57;;;6.97;;
21356;SDS011;10836;53.068;18.234;2023-10-19T01:38:50;15.40;;;7.80;;
21356;SDS011;10836;53.068;18.234;2023-10-19T01:41:22;15.30;;;7.50;;
21356;SDS011;10836;53.068;18.234;2023-10-19T01:43:52;14.57;;;6.53;;
21356;SDS011;10836;53.068;18.234;2023-10-19T01:46:21;14.83;;;7.03;;
21356;SDS011;10836;53.068;18.234;2023-10-19T01:48:56;13.00;;;6.47;;
21356;SDS011;10836;53.068;18.234;2023-10-19T01:51:24;22.43;;;9.87;;
21356;SDS011;10836;53.068;18.234;2023-10-19T01:53:54;19.30;;;8.53;;
21356;SDS011;10836;53.068;18.234;2023-10-19T01:56:22;17.37;;;7.50;;
21356;SDS011;10836;53.068;18.234;2023-10-19T01:58:50;11.90;;;7.10;;
21356;SDS011;10836;53.068;18.234;2023-10-19T02:01:19;22.83;;;9.50;;
21356;SDS011;10836;53.068;18.234;2023-10-19T02:03:48;16.13;;;7.80;;
21356;SDS011;10836;53.068;18.234;2023-10-19T02:06:20;14.67;;;7.60;;
21356;SDS011;10836;53.068;18.234;2023-10-19T02:08:50;15.07;;;7.33;;
21356;SDS011;10836;53.068;18.234;2023-10-19T02:11:22;13.77;;;6.87;;
21356;SDS011;10836;53.068;18.234;2023-10-19T02:13:56;13.87;;;7.13;;
21356;SDS011;10836;53.068;18.234;2023-10-19T02:16:27;13.53;;;7.40;;
21356;SDS011;10836;53.068;18.234;2023-10-19T02:18:56;18.30;;;9.03;;
21356;SDS011;10836;53.068;18.234;2023-10-19T02:21:23;21.20;;;8.70;;
21356;SDS011;10836;53.068;18.234;2023-10-19T02:23:54;19.03;;;9.30;;
21356;SDS011;10836;53.068;18.234;2023-10-19T02:26:20;26.60;;;12.90;;
21356;SDS011;10836;53.068;18.234;2023-10-19T02:28:49;23.47;;;12.50;;
21356;SDS011;10836;53.068;18.234;2023-10-19T02:31:19;21.90;;;11.50;;
21356;SDS011;10836;53.068;18.234;2023-10-19T02:33:53;30.53;;;12.57;;
21356;SDS011;10836;53.068;18.234;2023-10-19T02:36:27;30.10;;;14.83;;
21356;SDS011;10836;53.068;18.234;2023-10-19T02:38:58;63.37;;;30.40;;
21356;SDS011;10836;53.068;18.234;2023-10-19T02:41:27;67.23;;;33.63;;
21356;SDS011;10836;53.068;18.234;2023-10-19T02:43:55;60.97;;;31.90;;
21356;SDS011;10836;53.068;18.234;2023-10-19T02:46:31;75.83;;;36.17;;
21356;SDS011;10836;53.068;18.234;2023-10-19T02:49:00;60.60;;;30.30;;
21356;SDS011;10836;53.068;18.234;2023-10-19T02:51:27;46.53;;;24.80;;
21356;SDS011;10836;53.068;18.234;2023-10-19T02:53:54;51.70;;;24.90;;
21356;SDS011;10836;53.068;18.234;2023-10-19T02:56:21;49.90;;;24.00;;
21356;SDS011;10836;53.068;18.234;2023-10-19T02:58:50;53.57;;;24.97;;
21356;SDS011;10836;53.068;18.234;2023-10-19T03:01:20;56.50;;;24.70;;
21356;SDS011;10836;53.068;18.234;2023-10-19T03:03:51;50.97;;;20.00;;
21356;SDS011;10836;53.068;18.234;2023-10-19T03:06:21;45.67;;;18.23;;
21356;SDS011;10836;53.068;18.234;2023-10-19T03:08:49;48.33;;;17.47;;
21356;SDS011;10836;53.068;18.234;2023-10-19T03:11:40;45.07;;;17.57;;
21356;SDS011;10836;53.068;18.234;2023-10-19T03:14:08;47.27;;;16.97;;
21356;SDS011;10836;53.068;18.234;2023-10-19T03:16:37;45.13;;;17.07;;
21356;SDS011;10836;53.068;18.234;2023-10-19T03:19:09;37.13;;;15.63;;
21356;SDS011;10836;53.068;18.234;2023-10-19T03:21:36;54.70;;;20.37;;
21356;SDS011;10836;53.068;18.234;2023-10-19T03:24:16;58.60;;;20.00;;
21356;SDS011;10836;53.068;18.234;2023-10-19T03:26:50;53.80;;;17.97;;
21356;SDS011;10836;53.068;18.234;2023-10-19T03:29:17;54.20;;;19.87;;
21356;SDS011;10836;53.068;18.234;2023-10-19T03:31:58;63.17;;;21.70;;
21356;SDS011;10836;53.068;18.234;2023-10-19T03:34:28;43.43;;;18.20;;
21356;SDS011;10836;53.068;18.234;2023-10-19T03:37:01;41.73;;;18.17;;
21356;SDS011;10836;53.068;18.234;2023-10-19T03:39:33;40.53;;;18.43;;
21356;SDS011;10836;53.068;18.234;2023-10-19T03:42:01;43.83;;;19.90;;
21356;SDS011;10836;53.068;18.234;2023-10-19T03:44:28;46.53;;;19.23;;
21356;SDS011;10836;53.068;18.234;2023-10-19T03:47:06;54.60;;;21.47;;
21356;SDS011;10836;53.068;18.234;2023-10-19T03:49:38;55.47;;;27.07;;
21356;SDS011;10836;53.068;18.234;2023-10-19T03:52:06;53.77;;;26.50;;
21356;SDS011;10836;53.068;18.234;2023-10-19T03:54:37;44.17;;;23.70;;
21356;SDS011;10836;53.068;18.234;2023-10-19T03:57:08;53.13;;;24.40;;
21356;SDS011;10836;53.068;18.234;2023-10-19T03:59:40;61.17;;;25.90;;
21356;SDS011;10836;53.068;18.234;2023-10-19T04:02:08;51.67;;;23.77;;
21356;SDS011;10836;53.068;18.234;2023-10-19T04:04:43;55.33;;;21.77;;
21356;SDS011;10836;53.068;18.234;2023-10-19T04:07:10;48.83;;;21.57;;
21356;SDS011;10836;53.068;18.234;2023-10-19T04:09:44;46.10;;;21.07;;
21356;SDS011;10836;53.068;18.234;2023-10-19T04:12:37;53.33;;;22.50;;
21356;SDS011;10836;53.068;18.234;2023-10-19T04:15:09;60.47;;;27.50;;
21356;SDS011;10836;53.068;18.234;2023-10-19T04:17:43;58.77;;;27.77;;
21356;SDS011;10836;53.068;18.234;2023-10-19T04:20:16;59.77;;;26.17;;
21356;SDS011;10836;53.068;18.234;2023-10-19T04:22:44;61.33;;;26.87;;
21356;SDS011;10836;53.068;18.234;2023-10-19T04:25:16;47.67;;;24.03;;
21356;SDS011;10836;53.068;18.234;2023-10-19T04:27:47;50.07;;;23.60;;
21356;SDS011;10836;53.068;18.234;2023-10-19T04:30:16;50.30;;;23.13;;
21356;SDS011;10836;53.068;18.234;2023-10-19T04:32:44;49.03;;;22.97;;
21356;SDS011;10836;53.068;18.234;2023-10-19T04:35:13;53.43;;;23.07;;
21356;SDS011;10836;53.068;18.234;2023-10-19T04:37:41;51.43;;;21.73;;
21356;SDS011;10836;53.068;18.234;2023-10-19T04:40:10;45.43;;;22.83;;
21356;SDS011;10836;53.068;18.234;2023-10-19T04:42:37;47.37;;;22.60;;
21356;SDS011;10836;53.068;18.234;2023-10-19T04:45:05;49.07;;;21.77;;
21356;SDS011;10836;53.068;18.234;2023-10-19T04:47:33;54.07;;;22.27;;
21356;SDS011;10836;53.068;18.234;2023-10-19T04:50:03;45.17;;;22.50;;
21356;SDS011;10836;53.068;18.234;2023-10-19T04:52:31;54.77;;;25.03;;
21356;SDS011;10836;53.068;18.234;2023-10-19T04:54:59;66.77;;;27.50;;
21356;SDS011;10836;53.068;18.234;2023-10-19T04:57:26;66.50;;;29.87;;
21356;SDS011;10836;53.068;18.234;2023-10-19T04:59:53;76.93;;;31.13;;
21356;SDS011;10836;53.068;18.234;2023-10-19T05:02:20;74.20;;;33.40;;
21356;SDS011;10836;53.068;18.234;2023-10-19T05:04:47;61.63;;;29.37;;
21356;SDS011;10836;53.068;18.234;2023-10-19T05:07:15;66.53;;;30.77;;
21356;SDS011;10836;53.068;18.234;2023-10-19T05:09:45;76.10;;;30.73;;
21356;SDS011;10836;53.068;18.234;2023-10-19T05:12:13;58.07;;;27.57;;
21356;SDS011;10836;53.068;18.234;2023-10-19T05:14:42;66.97;;;31.30;;
21356;SDS011;10836;53.068;18.234;2023-10-19T05:17:09;73.40;;;32.37;;
21356;SDS011;10836;53.068;18.234;2023-10-19T05:19:38;65.30;;;29.97;;
21356;SDS011;10836;53.068;18.234;2023-10-19T05:22:06;69.33;;;31.90;;
21356;SDS011;10836;53.068;18.234;2023-10-19T05:24:35;66.37;;;30.40;;
21356;SDS011;10836;53.068;18.234;2023-10-19T05:27:02;58.60;;;29.23;;
21356;SDS011;10836;53.068;18.234;2023-10-19T05:29:31;63.33;;;30.77;;
21356;SDS011;10836;53.068;18.234;2023-10-19T05:31:59;67.10;;;30.13;;
21356;SDS011;10836;53.068;18.234;2023-10-19T05:34:27;60.70;;;29.60;;
21356;SDS011;10836;53.068;18.234;2023-10-19T05:36:56;65.07;;;28.83;;
21356;SDS011;10836;53.068;18.234;2023-10-19T05:39:26;67.80;;;30.10;;
21356;SDS011;10836;53.068;18.234;2023-10-19T05:41:57;64.43;;;30.63;;
21356;SDS011;10836;53.068;18.234;2023-10-19T05:44:28;66.83;;;29.17;;
21356;SDS011;10836;53.068;18.234;2023-10-19T05:46:57;66.67;;;29.63;;
21356;SDS011;10836;53.068;18.234;2023-10-19T05:49:26;66.57;;;29.50;;
21356;SDS011;10836;53.068;18.234;2023-10-19T05:51:53;80.70;;;31.80;;
21356;SDS011;10836;53.068;18.234;2023-10-19T05:54:20;70.87;;;35.00;;
21356;SDS011;10836;53.068;18.234;2023-10-19T05:56:50;82.10;;;35.67;;
21356;SDS011;10836;53.068;18.234;2023-10-19T05:59:18;68.37;;;32.03;;
21356;SDS011;10836;53.068;18.234;2023-10-19T06:01:45;65.87;;;32.00;;
21356;SDS011;10836;53.068;18.234;2023-10-19T06:04:16;67.10;;;31.73;;
21356;SDS011;10836;53.068;18.234;2023-10-19T06:06:47;64.63;;;31.53;;
21356;SDS011;10836;53.068;18.234;2023-10-19T06:09:16;66.60;;;31.47;;
21356;SDS011;10836;53.068;18.234;2023-10-19T06:11:44;68.53;;;31.63;;
21356;SDS011;10836;53.068;18.234;2023-10-19T06:14:11;69.90;;;31.10;;
21356;SDS011;10836;53.068;18.234;2023-10-19T06:16:38;66.70;;;31.90;;
21356;SDS011;10836;53.068;18.234;2023-10-19T06:19:05;65.40;;;32.43;;
21356;SDS011;10836;53.068;18.234;2023-10-19T06:21:32;70.20;;;32.97;;
21356;SDS011;10836;53.068;18.234;2023-10-19T06:24:01;66.23;;;32.63;;
21356;SDS011;10836;53.068;18.234;2023-10-19T06:26:29;58.57;;;31.50;;
21356;SDS011;10836;53.068;18.234;2023-10-19T06:28:57;77.03;;;36.47;;
21356;SDS011;10836;53.068;18.234;2023-10-19T06:31:26;69.47;;;34.80;;
21356;SDS011;10836;53.068;18.234;2023-10-19T06:33:56;67.77;;;36.40;;
21356;SDS011;10836;53.068;18.234;2023-10-19T06:36:24;81.43;;;37.30;;
21356;SDS011;10836;53.068;18.234;2023-10-19T06:38:51;77.90;;;36.97;;
21356;SDS011;10836;53.068;18.234;2023-10-19T06:41:20;83.17;;;37.73;;
21356;SDS011;10836;53.068;18.234;2023-10-19T06:43:47;74.23;;;37.63;;
21356;SDS011;10836;53.068;18.234;2023-10-19T06:46:14;73.73;;;36.90;;
21356;SDS011;10836;53.068;18.234;2023-10-19T06:48:42;65.80;;;34.17;;
21356;SDS011;10836;53.068;18.234;2023-10-19T06:51:09;79.13;;;35.83;;
21356;SDS011;10836;53.068;18.234;2023-10-19T06:53:36;67.30;;;34.33;;
21356;SDS011;10836;53.068;18.234;2023-10-19T06:56:03;76.43;;;37.23;;
21356;SDS011;10836;53.068;18.234;2023-10-19T06:58:31;71.10;;;35.30;;
21356;SDS011;10836;53.068;18.234;2023-10-19T07:00:58;74.83;;;38.93;;
21356;SDS011;10836;53.068;18.234;2023-10-19T07:03:32;76.67;;;41.77;;
21356;SDS011;10836;53.068;18.234;2023-10-19T07:05:59;70.47;;;39.47;;
21356;SDS011;10836;53.068;18.234;2023-10-19T07:08:34;68.77;;;36.40;;
21356;SDS011;10836;53.068;18.234;2023-10-19T07:11:01;66.40;;;35.00;;
21356;SDS011;10836;53.068;18.234;2023-10-19T07:13:29;63.87;;;33.30;;
21356;SDS011;10836;53.068;18.234;2023-10-19T07:16:00;61.07;;;33.57;;
21356;SDS011;10836;53.068;18.234;2023-10-19T07:18:27;62.43;;;32.73;;
21356;SDS011;10836;53.068;18.234;2023-10-19T07:20:55;67.00;;;33.00;;
21356;SDS011;10836;53.068;18.234;2023-10-19T07:23:30;58.20;;;30.87;;
21356;SDS011;10836;53.068;18.234;2023-10-19T07:25:58;57.70;;;31.40;;
21356;SDS011;10836;53.068;18.234;2023-10-19T07:28:29;57.33;;;33.10;;
21356;SDS011;10836;53.068;18.234;2023-10-19T07:30:56;62.97;;;31.33;;
21356;SDS011;10836;53.068;18.234;2023-10-19T07:33:24;59.90;;;30.20;;
21356;SDS011;10836;53.068;18.234;2023-10-19T07:35:52;65.23;;;31.30;;
21356;SDS011;10836;53.068;18.234;2023-10-19T07:38:22;54.20;;;28.67;;
21356;SDS011;10836;53.068;18.234;2023-10-19T07:40:50;56.47;;;31.13;;
21356;SDS011;10836;53.068;18.234;2023-10-19T07:43:20;59.33;;;29.43;;
21356;SDS011;10836;53.068;18.234;2023-10-19T07:45:48;55.80;;;29.03;;
21356;SDS011;10836;53.068;18.234;2023-10-19T07:48:17;57.40;;;30.63;;
21356;SDS011;10836;53.068;18.234;2023-10-19T07:50:44;52.50;;;29.13;;
21356;SDS011;10836;53.068;18.234;2023-10-19T07:53:11;52.93;;;28.67;;
21356;SDS011;10836;53.068;18.234;2023-10-19T07:55:38;52.23;;;29.57;;
21356;SDS011;10836;53.068;18.234;2023-10-19T07:58:07;54.33;;;28.27;;
21356;SDS011;10836;53.068;18.234;2023-10-19T08:00:34;55.70;;;28.13;;
21356;SDS011;10836;53.068;18.234;2023-10-19T08:03:01;51.20;;;27.57;;
21356;SDS011;10836;53.068;18.234;2023-10-19T08:05:30;45.17;;;26.40;;
21356;SDS011;10836;53.068;18.234;2023-10-19T08:07:57;49.20;;;26.47;;
21356;SDS011;10836;53.068;18.234;2023-10-19T08:10:26;55.60;;;26.63;;
21356;SDS011;10836;53.068;18.234;2023-10-19T08:12:54;58.93;;;26.37;;
21356;SDS011;10836;53.068;18.234;2023-10-19T08:15:22;55.60;;;26.53;;
21356;SDS011;10836;53.068;18.234;2023-10-19T08:17:50;49.20;;;24.77;;
21356;SDS011;10836;53.068;18.234;2023-10-19T08:20:20;46.90;;;23.77;;
21356;SDS011;10836;53.068;18.234;2023-10-19T08:22:53;47.80;;;23.73;;
21356;SDS011;10836;53.068;18.234;2023-10-19T08:25:27;37.63;;;21.97;;
21356;SDS011;10836;53.068;18.234;2023-10-19T08:28:02;45.43;;;24.47;;
21356;SDS011;10836;53.068;18.234;2023-10-19T08:30:29;44.00;;;22.90;;
21356;SDS011;10836;53.068;18.234;2023-10-19T08:32:56;43.53;;;24.53;;
21356;SDS011;10836;53.068;18.234;2023-10-19T08:35:25;40.63;;;23.40;;
21356;SDS011;10836;53.068;18.234;2023-10-19T08:37:53;39.83;;;23.23;;
21356;SDS011;10836;53.068;18.234;2023-10-19T08:40:21;45.90;;;22.40;;
21356;SDS011;10836;53.068;18.234;2023-10-19T08:42:50;44.10;;;23.30;;
21356;SDS011;10836;53.068;18.234;2023-10-19T08:45:18;54.20;;;23.87;;
21356;SDS011;10836;53.068;18.234;2023-10-19T08:47:53;39.83;;;22.40;;
21356;SDS011;10836;53.068;18.234;2023-10-19T08:50:25;47.97;;;24.17;;
21356;SDS011;10836;53.068;18.234;2023-10-19T08:52:53;38.70;;;22.47;;
21356;SDS011;10836;53.068;18.234;2023-10-19T08:55:22;40.50;;;23.17;;
21356;SDS011;10836;53.068;18.234;2023-10-19T08:58:10;40.03;;;22.63;;
21356;SDS011;10836;53.068;18.234;2023-10-19T09:00:43;41.50;;;22.80;;
21356;SDS011;10836;53.068;18.234;2023-10-19T09:03:15;39.07;;;22.47;;
21356;SDS011;10836;53.068;18.234;2023-10-19T09:05:44;40.93;;;23.13;;
21356;SDS011;10836;53.068;18.234;2023-10-19T09:08:16;35.03;;;20.87;;
21356;SDS011;10836;53.068;18.234;2023-10-19T09:10:44;39.40;;;21.93;;
21356;SDS011;10836;53.068;18.234;2023-10-19T09:13:12;36.73;;;21.10;;
21356;SDS011;10836;53.068;18.234;2023-10-19T09:15:41;36.03;;;20.50;;
21356;SDS011;10836;53.068;18.234;2023-10-19T09:18:15;33.57;;;19.77;;
21356;SDS011;10836;53.068;18.234;2023-10-19T09:20:47;35.00;;;18.83;;
21356;SDS011;10836;53.068;18.234;2023-10-19T09:23:35;34.33;;;17.53;;
21356;SDS011;10836;53.068;18.234;2023-10-19T09:26:03;27.47;;;16.93;;
21356;SDS011;10836;53.068;18.234;2023-10-19T09:28:34;33.03;;;17.63;;
21356;SDS011;10836;53.068;18.234;2023-10-19T09:31:01;30.17;;;17.30;;
21356;SDS011;10836;53.068;18.234;2023-10-19T09:33:31;36.80;;;18.10;;
21356;SDS011;10836;53.068;18.234;2023-10-19T09:36:02;31.20;;;18.53;;
21356;SDS011;10836;53.068;18.234;2023-10-19T09:38:32;31.30;;;18.27;;
21356;SDS011;10836;53.068;18.234;2023-10-19T09:41:00;29.30;;;18.07;;
21356;SDS011;10836;53.068;18.234;2023-10-19T09:43:34;28.27;;;16.03;;
21356;SDS011;10836;53.068;18.234;2023-10-19T09:46:08;30.40;;;16.60;;
21356;SDS011;10836;53.068;18.234;2023-10-19T09:48:39;36.77;;;19.27;;
21356;SDS011;10836;53.068;18.234;2023-10-19T09:51:09;30.67;;;16.80;;
21356;SDS011;10836;53.068;18.234;2023-10-19T09:53:40;30.17;;;17.77;;
21356;SDS011;10836;53.068;18.234;2023-10-19T09:56:32;31.37;;;18.13;;
21356;SDS011;10836;53.068;18.234;2023-10-19T09:59:11;33.33;;;18.73;;
21356;SDS011;10836;53.068;18.234;2023-10-19T10:02:08;30.27;;;16.87;;
21356;SDS011;10836;53.068;18.234;2023-10-19T10:04:41;34.50;;;17.13;;
21356;SDS011;10836;53.068;18.234;2023-10-19T10:07:09;37.50;;;17.33;;
21356;SDS011;10836;53.068;18.234;2023-10-19T10:09:37;32.23;;;16.77;;
21356;SDS011;10836;53.068;18.234;2023-10-19T10:12:20;29.67;;;16.80;;
21356;SDS011;10836;53.068;18.234;2023-10-19T10:15:02;27.77;;;14.80;;
21356;SDS011;10836;53.068;18.234;2023-10-19T10:17:36;28.83;;;15.20;;
21356;SDS011;10836;53.068;18.234;2023-10-19T10:22:37;22.00;;;12.87;;
21356;SDS011;10836;53.068;18.234;2023-10-19T10:25:04;24.63;;;13.43;;
21356;SDS011;10836;53.068;18.234;2023-10-19T10:27:31;22.20;;;13.30;;
21356;SDS011;10836;53.068;18.234;2023-10-19T10:30:00;30.20;;;14.83;;
21356;SDS011;10836;53.068;18.234;2023-10-19T10:32:42;29.73;;;13.90;;
21356;SDS011;10836;53.068;18.234;2023-10-19T10:35:09;23.23;;;13.27;;
21356;SDS011;10836;53.068;18.234;2023-10-19T10:37:37;22.20;;;12.63;;
21356;SDS011;10836;53.068;18.234;2023-10-19T10:40:04;25.17;;;14.23;;
21356;SDS011;10836;53.068;18.234;2023-10-19T10:42:32;24.83;;;13.67;;
21356;SDS011;10836;53.068;18.234;2023-10-19T10:45:00;26.00;;;13.33;;
21356;SDS011;10836;53.068;18.234;2023-10-19T10:47:32;26.03;;;14.13;;
21356;SDS011;10836;53.068;18.234;2023-10-19T10:50:01;26.33;;;13.50;;
21356;SDS011;10836;53.068;18.234;2023-10-19T10:52:34;24.37;;;13.00;;
21356;SDS011;10836;53.068;18.234;2023-10-19T10:57:36;24.83;;;13.47;;
21356;SDS011;10836;53.068;18.234;2023-10-19T11:00:04;26.57;;;14.27;;
21356;SDS011;10836;53.068;18.234;2023-10-19T11:02:34;25.77;;;14.07;;
21356;SDS011;10836;53.068;18.234;2023-10-19T11:05:03;27.33;;;14.10;;
21356;SDS011;10836;53.068;18.234;2023-10-19T11:07:30;25.13;;;14.23;;
21356;SDS011;10836;53.068;18.234;2023-10-19T11:09:59;24.93;;;14.30;;
21356;SDS011;10836;53.068;18.234;2023-10-19T11:12:25;27.27;;;14.60;;
21356;SDS011;10836;53.068;18.234;2023-10-19T11:14:56;25.37;;;13.70;;
21356;SDS011;10836;53.068;18.234;2023-10-19T11:17:32;23.83;;;13.73;;
21356;SDS011;10836;53.068;18.234;2023-10-19T11:19:59;27.30;;;14.97;;
21356;SDS011;10836;53.068;18.234;2023-10-19T11:22:27;29.77;;;15.53;;
21356;SDS011;10836;53.068;18.234;2023-10-19T11:24:54;32.27;;;14.53;;
21356;SDS011;10836;53.068;18.234;2023-10-19T11:27:30;30.30;;;14.20;;
21356;SDS011;10836;53.068;18.234;2023-10-19T11:29:58;32.90;;;15.33;;
21356;SDS011;10836;53.068;18.234;2023-10-19T11:32:26;26.17;;;15.30;;
21356;SDS011;10836;53.068;18.234;2023-10-19T11:35:05;26.97;;;15.83;;
21356;SDS011;10836;53.068;18.234;2023-10-19T11:37:46;29.60;;;16.57;;
21356;SDS011;10836;53.068;18.234;2023-10-19T11:40:14;23.83;;;14.70;;
21356;SDS011;10836;53.068;18.234;2023-10-19T11:42:42;26.97;;;16.17;;
21356;SDS011;10836;53.068;18.234;2023-10-19T11:45:09;32.97;;;15.90;;
21356;SDS011;10836;53.068;18.234;2023-10-19T11:47:38;27.50;;;15.77;;
21356;SDS011;10836;53.068;18.234;2023-10-19T11:50:05;24.70;;;14.87;;
21356;SDS011;10836;53.068;18.234;2023-10-19T11:52:33;24.33;;;14.33;;
21356;SDS011;10836;53.068;18.234;2023-10-19T11:55:00;27.13;;;14.33;;
21356;SDS011;10836;53.068;18.234;2023-10-19T11:57:27;25.77;;;14.30;;
21356;SDS011;10836;53.068;18.234;2023-10-19T11:59:54;27.77;;;15.20;;
21356;SDS011;10836;53.068;18.234;2023-10-19T12:02:23;31.37;;;15.63;;
21356;SDS011;10836;53.068;18.234;2023-10-19T12:04:50;26.60;;;14.97;;
21356;SDS011;10836;53.068;18.234;2023-10-19T12:07:17;25.13;;;14.73;;
21356;SDS011;10836;53.068;18.234;2023-10-19T12:09:44;23.53;;;13.47;;
21356;SDS011;10836;53.068;18.234;2023-10-19T12:12:11;25.30;;;13.87;;
21356;SDS011;10836;53.068;18.234;2023-10-19T12:14:40;29.20;;;14.33;;
21356;SDS011;10836;53.068;18.234;2023-10-19T12:17:06;27.30;;;14.47;;
21356;SDS011;10836;53.068;18.234;2023-10-19T12:19:35;25.10;;;14.37;;
21356;SDS011;10836;53.068;18.234;2023-10-19T12:22:01;22.90;;;14.40;;
21356;SDS011;10836;53.068;18.234;2023-10-19T12:24:31;25.77;;;14.10;;
21356;SDS011;10836;53.068;18.234;2023-10-19T12:26:58;26.97;;;14.27;;
21356;SDS011;10836;53.068;18.234;2023-10-19T12:29:25;22.87;;;14.23;;
21356;SDS011;10836;53.068;18.234;2023-10-19T12:31:52;23.23;;;13.53;;
21356;SDS011;10836;53.068;18.234;2023-10-19T12:34:19;26.80;;;14.27;;
21356;SDS011;10836;53.068;18.234;2023-10-19T12:36:46;24.50;;;14.80;;
21356;SDS011;10836;53.068;18.234;2023-10-19T12:39:14;24.20;;;14.47;;
21356;SDS011;10836;53.068;18.234;2023-10-19T12:42:01;20.17;;;13.33;;
21356;SDS011;10836;53.068;18.234;2023-10-19T12:44:28;27.83;;;13.83;;
21356;SDS011;10836;53.068;18.234;2023-10-19T12:46:56;25.10;;;15.10;;
21356;SDS011;10836;53.068;18.234;2023-10-19T12:49:25;24.17;;;15.70;;
21356;SDS011;10836;53.068;18.234;2023-10-19T12:51:55;23.03;;;14.00;;
21356;SDS011;10836;53.068;18.234;2023-10-19T12:54:22;22.07;;;13.27;;
21356;SDS011;10836;53.068;18.234;2023-10-19T12:56:49;23.10;;;13.60;;
21356;SDS011;10836;53.068;18.234;2023-10-19T12:59:16;29.17;;;14.07;;
21356;SDS011;10836;53.068;18.234;2023-10-19T13:01:45;23.53;;;13.90;;
21356;SDS011;10836;53.068;18.234;2023-10-19T13:04:15;25.83;;;13.43;;
21356;SDS011;10836;53.068;18.234;2023-10-19T13:06:45;25.93;;;14.20;;
21356;SDS011;10836;53.068;18.234;2023-10-19T13:09:14;25.27;;;14.93;;
21356;SDS011;10836;53.068;18.234;2023-10-19T13:11:48;22.17;;;13.50;;
21356;SDS011;10836;53.068;18.234;2023-10-19T13:14:19;23.33;;;13.67;;
21356;SDS011;10836;53.068;18.234;2023-10-19T13:16:45;35.20;;;15.63;;
21356;SDS011;10836;53.068;18.234;2023-10-19T13:19:13;30.57;;;15.70;;
21356;SDS011;10836;53.068;18.234;2023-10-19T13:21:42;26.20;;;14.10;;
21356;SDS011;10836;53.068;18.234;2023-10-19T13:24:09;28.50;;;13.63;;
21356;SDS011;10836;53.068;18.234;2023-10-19T13:26:36;29.97;;;13.47;;
21356;SDS011;10836;53.068;18.234;2023-10-19T13:29:05;24.87;;;13.67;;
21356;SDS011;10836;53.068;18.234;2023-10-19T13:31:32;25.20;;;12.60;;
21356;SDS011;10836;53.068;18.234;2023-10-19T13:34:00;21.30;;;13.00;;
21356;SDS011;10836;53.068;18.234;2023-10-19T13:36:29;23.40;;;13.23;;
21356;SDS011;10836;53.068;18.234;2023-10-19T13:38:57;23.93;;;12.50;;
21356;SDS011;10836;53.068;18.234;2023-10-19T13:41:24;20.27;;;11.50;;
21356;SDS011;10836;53.068;18.234;2023-10-19T13:43:51;31.30;;;13.57;;
21356;SDS011;10836;53.068;18.234;2023-10-19T13:46:17;24.43;;;13.37;;
21356;SDS011;10836;53.068;18.234;2023-10-19T13:48:45;29.77;;;14.27;;
21356;SDS011;10836;53.068;18.234;2023-10-19T13:51:15;22.87;;;12.57;;
21356;SDS011;10836;53.068;18.234;2023-10-19T13:53:46;22.43;;;11.80;;
21356;SDS011;10836;53.068;18.234;2023-10-19T13:56:13;19.07;;;11.40;;
21356;SDS011;10836;53.068;18.234;2023-10-19T13:58:43;21.83;;;11.80;;
21356;SDS011;10836;53.068;18.234;2023-10-19T14:01:14;19.93;;;11.40;;
21356;SDS011;10836;53.068;18.234;2023-10-19T14:03:44;22.40;;;11.77;;
21356;SDS011;10836;53.068;18.234;2023-10-19T14:06:14;20.97;;;10.80;;
21356;SDS011;10836;53.068;18.234;2023-10-19T14:08:42;23.47;;;10.90;;
21356;SDS011;10836;53.068;18.234;2023-10-19T14:11:09;17.83;;;11.07;;
21356;SDS011;10836;53.068;18.234;2023-10-19T14:13:38;18.53;;;10.40;;
21356;SDS011;10836;53.068;18.234;2023-10-19T14:16:09;23.47;;;11.87;;
21356;SDS011;10836;53.068;18.234;2023-10-19T14:18:36;23.20;;;11.00;;
21356;SDS011;10836;53.068;18.234;2023-10-19T14:21:10;20.40;;;11.60;;
21356;SDS011;10836;53.068;18.234;2023-10-19T14:23:39;19.27;;;10.40;;
21356;SDS011;10836;53.068;18.234;2023-10-19T14:26:07;20.17;;;11.40;;
21356;SDS011;10836;53.068;18.234;2023-10-19T14:28:36;18.23;;;10.00;;
21356;SDS011;10836;53.068;18.234;2023-10-19T14:31:03;20.10;;;11.60;;
21356;SDS011;10836;53.068;18.234;2023-10-19T14:33:31;17.43;;;10.27;;
21356;SDS011;10836;53.068;18.234;2023-10-19T14:35:58;22.13;;;9.73;;